Rumbley, Maryland
Current Conditions -  °F | °C
As of 7:54 AM on Thursday 30 Oct 2014 (Local Time) from KWAL Reporting Station
Clear Clear  
Wind Chill: 49°   Ceiling: Unl
Heat Index: 49°   Visibility: 8mi
Dew Point: 48°   Wind: 3mph
Humidity: 97%   Direction: 320°NW
Pressure: 30.01"   Gusts: NA
Location:  38.0995°N, 75.7422°W
Report Text: KWAL 301154Z AUTO 32003KT 8SM CLR 09/09 A3001 RMK AO2 SLP158 60001 7//// T00940089 10117 20094 51009
Loading
Personal Weather Stations






























Interactive Weather Map
Tropical Storm Tracking
New forecast layout! Learn more

10-Day Weather Forecast

Advertisements
Track Severe Weather on mobile